METAR Reports - Misc

 

KGRB - Green Bay, Wisconsin, USA
Updated: 01/27/2022 6:53pm
Clear
Clear
 Wind from NNW
Wind: NNW 12 mph , 19 km/h
Temperature: 19°F , -7°C
Wind Chill: 6°F , -14°C
Dew Point: 1°F , -17°C
Humidity: 45%
Barometer: 30.21 inHg , 1023 hPa
Clouds: Clear
Visibility: 10 miles , 16 km
2022/01/27 23:53 KGRB 272353Z 34010KT 10SM CLR M07/M17 A3021 RMK AO2 SLP243 T10721167 11017 21072 51044
KMCD - Mackinac Island, Michigan, USA
Updated: 01/27/2022 7:15pm
Clear
Clear
 Wind from WNW
Wind: WNW 10 mph , 17 km/h, Gust: 17 mph , 28 km/h
Temperature: 12°F , -11°C
Wind Chill: -1°F , -18°C
Dew Point: 7°F , -14°C
Humidity: 79%
Barometer: 30.14 inHg , 1020.7 hPa
Clouds: Clear
Visibility: 10 miles , 16 km
2022/01/28 00:15 KMCD 280015Z AUTO 30009G15KT 10SM CLR M11/M14 A3014 RMK AO2 T11081141
 
K06C - Schaumburg, Illinois, USA
Updated: 01/27/2022 7:15pm
Overcast
Overcast
 Wind from calm
Wind: Calm
Temperature: 28°F , -2°C
Dew Point: 21°F , -6°C
Humidity: 74%
Barometer: 30.16 inHg , 1021.3 hPa
Clouds: Overcast
Visibility: 10 miles , 16 km
Cloud details: Mostly cloudy 3700 ft
Overcast 4400 ft
2022/01/28 00:15 K06C 280015Z AUTO 00000KT 10SM BKN037 OVC044 M02/M06 A3016 RMK AO2 T10211057
KCLE - Cleveland, OH, USA
Updated: 01/27/2022 6:51pm
Overcast
Overcast
 Wind from SSW
Wind: SSW 8 mph , 13 km/h
Temperature: 27°F , -3°C
Wind Chill: 19°F , -7°C
Dew Point: 21°F , -6°C
Humidity: 80%
Barometer: 30.10 inHg , 1019.3 hPa
Clouds: Overcast
Visibility: 10 miles , 16 km
Cloud details: Overcast 1900 ft
2022/01/27 23:51 KCLE 272351Z 21007KT 10SM OVC019 M03/M06 A3010 RMK AO2 SLP224 4/007 60002 T10281061 11028 21050 51014
 
KMMU - Morristown, New Jersey, USA
Updated: 01/27/2022 6:55pm
Clear
Clear
 Wind from WSW
Wind: WSW 3 mph , 6 km/h
Temperature: 25°F , -4°C
Dew Point: 10°F , -12°C
Humidity: 54%
Barometer: 30.28 inHg , 1025.4 hPa
Clouds: Clear
Visibility: 10 miles , 16 km
2022/01/27 23:55 KMMU 272355Z COR 24003KT 10SM SKC M04/M12 A3028
KSDF - Louisville, Kentucky, USA
Updated: 01/27/2022 6:56pm
Overcast
Overcast
 Wind from SSW
Wind: SSW 8 mph , 13 km/h
Temperature: 39°F , 4°C
Wind Chill: 33°F , 1°C
Dew Point: 27°F , -3°C
Humidity: 61%
Barometer: 30.21 inHg , 1023 hPa
Clouds: Overcast
Visibility: 10 miles , 16 km
Cloud details: Few Clouds 7000 ft
Overcast 8500 ft
2022/01/27 23:56 KSDF 272356Z 20007KT 10SM FEW070 OVC085 04/M03 A3021 RMK AO2 SLP236 60000 T00391033 10056 20017 53004